Flight Track Log - Related Links

Times and Time Zones

All times are in EDT time to prevent confusion due to time zone crossing. See the ASQ4252 flight status page for this flight to view local times or setup timezone preferences in your user account.

Time Position Orientation Groundspeed Altitude Reporting Facility
EDT Latitude Longitude Course Direction KTS MPH feet Rate Location/Type
Wed 11:01:04 AM 36.2872 -94.4233 322° Northwest 249 287 8,700  Level Kansas City Center
Wed 11:02:00 AM 36.7034 -94.3940 351° North  Level FlightAware Approximate
Wed 11:02:07 AM 36.3661 -94.4453 347° North 283 326 11,100  Level Kansas City Center
Wed 11:03:00 AM 36.7912 -94.4116 351° North  Level FlightAware Approximate
Wed 11:03:11 AM 36.4569 -94.4431 North 307 353 12,400  Level Kansas City Center
Wed 11:04:00 AM 36.8542 -94.3882 60° Northeast  Level FlightAware Approximate
Wed 11:04:12 AM 36.5536 -94.4122 14° North 348 400 13,900  Level Kansas City Center
Wed 11:05:00 AM 36.8986 -94.2920 60° Northeast  Level FlightAware Approximate
Wed 11:05:13 AM 36.6244 -94.3222 46° Northeast 362 417 16,000  Level Kansas City Center
Wed 11:06:16 AM 36.6956 -94.2272 47° Northeast 371 427 17,500 1,500 Climbing Kansas City Center
Wed 11:07:17 AM 36.7842 -94.1094 47° Northeast 383 441 19,100 1,742 Climbing Kansas City Center
Wed 11:08:20 AM 36.8572 -94.0125 47° Northeast 384 442 21,100 1,935 Climbing Kansas City Center
Wed 11:09:21 AM 36.9267 -93.9186 47° Northeast 374 430 23,100 1,728 Climbing Kansas City Center
Wed 11:10:25 AM 36.9961 -93.8247 47° Northeast 369 425 24,700 1,645 Climbing Kansas City Center
Wed 11:11:25 AM 37.0678 -93.7264 48° Northeast 372 428 26,500 1,548 Climbing Kansas City Center
Wed 11:12:29 AM 37.1381 -93.6314 47° Northeast 371 427 27,900 1,344 Climbing Kansas City Center
Wed 11:13:30 AM 37.2108 -93.5331 47° Northeast 380 437 29,300 1,574 Climbing Kansas City Center
Wed 11:14:31 AM 37.2989 -93.4117 48° Northeast 389 448 31,100 1,500 Climbing Kansas City Center
Wed 11:15:34 AM 37.3742 -93.3131 46° Northeast 389 448 32,400 1,113 Climbing Kansas City Center
Wed 11:16:35 AM 37.4658 -93.2319 35° Northeast 397 457 33,400 830 Climbing Kansas City Center
Wed 11:18:00 AM 37.5845 -93.1011 35° Northeast  Level FlightAware Approximate
Wed 11:18:42 AM 37.6539 -93.0608 35° Northeast 415 478 35,000  Level Kansas City Center
Wed 11:19:43 AM 37.7494 -92.9700 37° Northeast 426 490 35,000  Level Kansas City Center
Wed 11:20:46 AM 37.8692 -92.8800 31° Northeast 418 481 35,000  Level Kansas City Center
Wed 11:21:46 AM 37.9828 -92.9022 351° North 415 478 35,000  Level Kansas City Center
Wed 11:22:50 AM 38.0967 -92.9450 344° North 421 484 35,000  Level Kansas City Center
Wed 11:23:50 AM 38.2131 -92.9881 344° North 427 491 35,000  Level Kansas City Center
Wed 11:24:52 AM 38.3297 -92.9686 North 421 484 35,000  Level Kansas City Center
Wed 11:25:56 AM 38.4214 -92.8664 41° Northeast 430 495 35,000  Level Kansas City Center
Wed 11:26:57 AM 38.5058 -92.7556 46° Northeast 431 496 35,000  Level Kansas City Center
Wed 11:28:00 AM 38.5889 -92.6428 47° Northeast 431 496 35,000  Level Kansas City Center
Wed 11:29:01 AM 38.6728 -92.5264 47° Northeast 437 503 35,000  Level Kansas City Center
Wed 11:30:02 AM 38.7739 -92.3886 47° Northeast 438 504 35,000  Level Kansas City Center
Wed 11:31:03 AM 38.8600 -92.2708 47° Northeast 444 511 35,000  Level Kansas City Center
Wed 11:32:07 AM 38.9447 -92.1525 47° Northeast 447 514 35,000  Level Kansas City Center
Wed 11:33:08 AM 39.0297 -92.0394 46° Northeast 441 507 35,000  Level Kansas City Center
Wed 11:34:11 AM 39.1122 -91.9197 48° Northeast 442 509 35,000  Level Kansas City Center
Wed 11:35:13 AM 39.1967 -91.8028 47° Northeast 444 511 35,000  Level Kansas City Center
Wed 11:36:14 AM 39.2819 -91.6856 47° Northeast 444 511 35,000  Level Kansas City Center
Wed 11:37:17 AM 39.3653 -91.5678 48° Northeast 445 512 35,000  Level Kansas City Center
Wed 11:38:18 AM 39.4653 -91.4269 47° Northeast 443 510 35,000  Level Kansas City Center
Wed 11:39:22 AM 39.5481 -91.3089 48° Northeast 443 510 35,000  Level Kansas City Center
Wed 11:40:22 AM 39.6306 -91.1917 48° Northeast 442 509 35,000  Level Kansas City Center
Wed 11:41:25 AM 39.7142 -91.0756 47° Northeast 439 505 35,000  Level Kansas City Center
Wed 11:42:27 AM 39.8200 -90.9692 38° Northeast 447 514 35,000  Level Kansas City Center
Wed 11:43:28 AM 39.9194 -90.8717 37° Northeast 447 514 35,000  Level Kansas City Center
Wed 11:44:32 AM 40.0167 -90.7722 38° Northeast 444 511 35,000 -290 Level Kansas City Center
Wed 11:45:32 AM 40.1122 -90.6725 39° Northeast 441 507 34,400 -919 Descending Kansas City Center
Wed 11:46:36 AM 40.2111 -90.5744 37° Northeast 445 512 33,100 -677 Descending Kansas City Center
Wed 11:47:36 AM 40.3267 -90.4544 38° Northeast 442 509 33,000 -48 Descending Kansas City Center
Wed 11:48:40 AM 40.4269 -90.3525 38° Northeast 451 519 33,000  Level Kansas City Center
Wed 11:49:41 AM 40.5264 -90.2500 38° Northeast 454 522 33,000  Level Kansas City Center
Wed 11:50:44 AM 40.6289 -90.1450 38° Northeast 447 514 33,000  Level Kansas City Center
Wed 11:51:44 AM 40.7256 -90.0458 38° Northeast 446 513 33,000 -576 Level Kansas City Center
Wed 11:52:49 AM 40.8250 -89.9436 38° Northeast 448 516 31,800 -1,881 Descending Kansas City Center
Wed 11:53:58 AM 40.9389 -89.8181 40° Northeast 435 501 28,800 -2,565 Descending Chicago Center
Wed 11:55:00 AM 41.0419 -89.7128 38° Northeast 460 529 26,200 -2,274 Descending Chicago Center
Wed 11:56:02 AM 41.1356 -89.6158 38° Northeast 433 498 24,100 -1,742 Descending Chicago Center
Wed 11:57:04 AM 41.2003 -89.4933 55° Northeast 409 471 22,600 -2,177 Descending Chicago Center
Wed 11:58:06 AM 41.2653 -89.3303 62° Northeast 416 479 19,600 -2,323 Descending Chicago Center
Wed 11:59:08 AM 41.3178 -89.1997 62° Northeast 401 461 17,800 -1,742 Descending Chicago Center
Wed 12:00:10 PM 41.3656 -89.0775 62° Northeast 395 455 16,000 -1,839 Descending Chicago Center
Wed 12:01:12 PM 41.4156 -88.9525 62° Northeast 386 444 14,000 -2,081 Descending Chicago Center
Wed 12:02:14 PM 41.4719 -88.8094 62° Northeast 366 421 11,700 -1,452 Descending Chicago Center
Wed 12:03:16 PM 41.5189 -88.6900 62° Northeast 362 417 11,000 -339 Descending Chicago Center
Wed 12:04:18 PM 41.5656 -88.5689 63° Northeast 365 420 11,000  Level Chicago Center
Wed 12:05:20 PM 41.6172 -88.4528 59° Northeast 364 419 11,000  Level Chicago Center
Wed 12:06:23 PM 41.6800 -88.3428 53° Northeast 370 426 11,000  Level Chicago Center
Wed 12:07:25 PM 41.7422 -88.2389 51° Northeast 347 399 11,000 -387 Level Chicago Center
Wed 12:08:27 PM 41.8139 -88.1147 52° Northeast 333 383 10,200 -1,113 Descending Chicago Center
Wed 12:09:29 PM 41.8622 -88.0281 53° Northeast 297 342 8,700 -1,596 Descending Chicago Center
Wed 12:10:01 PM 41.8833 -87.9833 58° Northeast 281 323 7,700 -1,041 Descending Chicago TRACON
Wed 12:11:07 PM 41.8833 -87.8667 90° East 257 296 7,000 -762 Descending Chicago TRACON
Wed 12:12:07 PM 41.8833 -87.7833 90° East 232 267 6,100 -900 Descending Chicago TRACON

Login

Don't have an account? Register now (free) for customized features, flight alerts, and more!